Time;durP1;ratioP1;P1;durP2;ratioP2;P2;SDS_P1;SDS_P2;PMS_P1;PMS_P2;Temp;Humidity;BMP_temperature;BMP_pressure;BME280_temperature;BME280_humidity;BME280_pressure;Samples;Min_cycle;Max_cycle;Signal;HPM_P1;HPM_P2
2023/03/09 00:01:26;;;;;;;4.83;3.27;;;;;;;9.88;58.72;94024.75;5014031;28;20553;-81
2023/03/09 00:03:53;;;;;;;6.13;3.70;;;;;;;9.78;59.07;94014.19;5014000;28;20233;-82
2023/03/09 00:06:21;;;;;;;6.70;3.67;;;;;;;9.69;58.98;94005.97;5012676;28;20199;-80
2023/03/09 00:08:48;;;;;;;7.03;3.20;;;;;;;9.69;59.68;94007.75;5017633;28;20213;-80
2023/03/09 00:11:33;;;;;;;5.70;3.67;;;;;;;9.74;59.54;94004.47;5028381;28;20616;-81
2023/03/09 00:14:00;;;;;;;8.27;3.30;;;;;;;9.59;60.05;93981.59;5004737;28;20256;-80
2023/03/09 00:16:29;;;;;;;4.80;3.37;;;;;;;9.64;59.53;94010.22;5027910;28;20673;-80
2023/03/09 00:18:58;;;;;;;4.67;3.37;;;;;;;9.58;60.44;94006.75;5021530;28;20203;-80
2023/03/09 00:21:36;;;;;;;6.80;3.80;;;;;;;9.46;60.75;93989.63;5027595;28;20274;-82
2023/03/09 00:24:04;;;;;;;4.87;3.60;;;;;;;9.42;60.50;93999.66;5014118;28;20211;-81
2023/03/09 00:26:34;;;;;;;5.50;3.30;;;;;;;9.43;60.99;93996.06;5032130;28;20206;-82
2023/03/09 00:29:00;;;;;;;8.93;4.00;;;;;;;9.41;60.97;93989.50;5028605;28;20282;-80
2023/03/09 00:31:27;;;;;;;6.53;3.80;;;;;;;9.36;61.05;93995.38;5028404;28;20261;-80
2023/03/09 00:33:54;;;;;;;8.03;3.60;;;;;;;9.41;61.36;93989.50;5029244;28;20207;-80
2023/03/09 00:36:21;;;;;;;7.03;4.00;;;;;;;9.30;61.33;93985.91;5031868;28;20692;-79
2023/03/09 00:38:51;;;;;;;7.40;4.40;;;;;;;9.39;61.99;94012.28;5029270;28;20865;-80
2023/03/09 00:41:18;;;;;;;9.10;5.37;;;;;;;9.37;62.26;94004.75;5019935;28;20258;-81
2023/03/09 00:43:47;;;;;;;11.20;5.77;;;;;;;9.26;62.31;93973.63;5024137;28;20223;-83
2023/03/09 00:46:14;;;;;;;12.83;6.47;;;;;;;9.28;63.26;93994.94;5031114;28;20198;-81
2023/03/09 00:48:42;;;;;;;14.53;6.97;;;;;;;9.24;63.59;93989.41;5012940;28;20689;-80
2023/03/09 00:51:10;;;;;;;12.30;7.03;;;;;;;9.17;64.38;93957.63;5010421;28;20247;-80
2023/03/09 00:53:37;;;;;;;14.27;7.03;;;;;;;9.09;64.86;93974.28;5019590;28;20210;-81
2023/03/09 00:56:06;;;;;;;14.13;6.80;;;;;;;9.01;64.53;93979.03;5028516;28;20206;-80
2023/03/09 00:58:33;;;;;;;11.00;6.63;;;;;;;8.93;65.70;93972.38;5032152;28;20203;-80
2023/03/09 01:01:02;;;;;;;12.40;6.77;;;;;;;8.92;66.27;93975.19;5028119;28;20202;-81
2023/03/09 01:03:28;;;;;;;13.23;7.33;;;;;;;8.95;65.54;93972.16;5028477;28;20214;-79
2023/03/09 01:05:56;;;;;;;8.83;6.07;;;;;;;8.85;66.46;93985.69;5026874;28;20202;-79
2023/03/09 01:08:23;;;;;;;11.83;6.43;;;;;;;8.81;66.82;93968.19;5030263;28;20202;-79
2023/03/09 01:10:50;;;;;;;11.50;7.07;;;;;;;8.69;67.31;93988.91;5029387;28;20221;-79
2023/03/09 01:13:17;;;;;;;14.30;7.10;;;;;;;8.53;67.68;93971.41;5026275;28;20295;-79
2023/03/09 01:15:43;;;;;;;13.77;7.57;;;;;;;8.39;69.13;93982.97;5032948;28;20669;-84
2023/03/09 01:18:12;;;;;;;12.13;7.33;;;;;;;8.37;68.50;93972.03;5030327;28;20214;-83
2023/03/09 01:20:39;;;;;;;11.80;7.30;;;;;;;8.33;69.42;93956.19;5025685;28;20261;-83
2023/03/09 01:23:06;;;;;;;12.67;7.57;;;;;;;8.11;70.15;93921.41;5029184;28;20214;-85
2023/03/09 01:25:32;;;;;;;10.93;6.77;;;;;;;8.28;70.25;93942.31;5032383;28;20222;-83
2023/03/09 01:27:59;;;;;;;12.03;6.93;;;;;;;8.10;70.86;93947.53;5028070;28;20209;-84
2023/03/09 01:30:26;;;;;;;14.03;7.17;;;;;;;8.11;70.66;93955.06;5030362;28;20201;-86
2023/03/09 01:32:54;;;;;;;13.60;7.03;;;;;;;8.12;70.83;93950.66;5015380;28;20229;-86
2023/03/09 01:35:22;;;;;;;13.03;7.23;;;;;;;7.97;71.73;93957.03;5013510;28;20287;-87
2023/03/09 01:37:49;;;;;;;14.97;7.07;;;;;;;7.89;72.23;93959.91;5013163;28;20207;-86
2023/03/09 01:40:20;;;;;;;11.33;6.87;;;;;;;7.91;71.99;93939.78;5015650;28;20230;-86
2023/03/09 01:42:54;;;;;;;12.47;7.70;;;;;;;8.03;71.62;93939.84;5012548;28;20274;-86
2023/03/09 01:45:58;;;;;;;16.63;7.53;;;;;;;8.09;71.60;93946.72;5028052;28;20304;-83
2023/03/09 01:48:29;;;;;;;13.40;7.47;;;;;;;8.02;72.14;93932.31;5009315;28;20203;-87
2023/03/09 01:50:57;;;;;;;11.63;7.07;;;;;;;8.08;71.98;93934.03;5025145;28;20238;-87
2023/03/09 01:53:24;;;;;;;16.70;7.80;;;;;;;8.08;72.24;93921.09;5029452;28;20665;-85
2023/03/09 01:55:53;;;;;;;10.43;6.57;;;;;;;7.94;72.31;93918.66;5031280;28;20191;-79
2023/03/09 01:58:24;;;;;;;13.20;7.80;;;;;;;8.06;72.39;93933.44;5011573;28;20203;-79
2023/03/09 02:00:54;;;;;;;12.67;7.27;;;;;;;7.85;72.70;93919.97;5024979;28;20389;-79
2023/03/09 02:03:24;;;;;;;12.43;7.50;;;;;;;7.93;73.17;93942.97;5027893;28;20194;-79
2023/03/09 02:05:56;;;;;;;13.73;7.30;;;;;;;8.02;73.17;93941.63;5032893;28;20234;-80
2023/03/09 02:08:27;;;;;;;14.57;7.93;;;;;;;7.97;72.91;93941.50;5033911;28;20254;-79
2023/03/09 02:10:57;;;;;;;15.07;7.83;;;;;;;8.06;73.18;93930.84;5033153;28;20672;-79
2023/03/09 02:13:29;;;;;;;14.30;7.83;;;;;;;8.16;71.93;93939.66;5031365;28;20198;-80
2023/03/09 02:15:55;;;;;;;12.90;7.87;;;;;;;8.16;72.18;93949.22;5030613;28;20202;-85
2023/03/09 02:18:24;;;;;;;14.77;7.93;;;;;;;8.15;71.96;93945.84;5034499;28;20203;-80
2023/03/09 02:21:02;;;;;;;13.80;8.07;;;;;;;8.17;72.28;93948.19;5031285;28;20226;-81
2023/03/09 02:23:37;;;;;;;13.97;7.80;;;;;;;8.14;71.63;93946.84;5032931;28;20202;-78
2023/03/09 02:26:12;;;;;;;15.10;7.67;;;;;;;8.05;72.00;93948.19;5019295;28;20234;-79
2023/03/09 02:28:40;;;;;;;14.13;7.67;;;;;;;7.93;72.88;93919.69;5015452;28;20205;-79
2023/03/09 02:31:08;;;;;;;12.70;7.17;;;;;;;7.73;73.88;93946.81;5016396;28;20605;-79
2023/03/09 02:33:34;;;;;;;12.33;7.17;;;;;;;7.77;73.57;93953.91;5033930;28;20199;-79
2023/03/09 02:36:02;;;;;;;14.57;7.67;;;;;;;7.79;73.66;93957.06;5015881;28;20211;-79
2023/03/09 02:38:28;;;;;;;12.70;7.40;;;;;;;7.78;73.51;93955.50;5018266;28;20207;-79
2023/03/09 02:40:58;;;;;;;10.50;6.93;;;;;;;7.86;73.78;93950.00;5019582;28;20633;-82
2023/03/09 02:43:30;;;;;;;14.27;7.90;;;;;;;7.89;73.70;93943.59;5033958;28;20195;-85
2023/03/09 02:45:58;;;;;;;11.10;7.23;;;;;;;7.90;74.44;93942.63;5027306;28;20215;-79
2023/03/09 02:48:25;;;;;;;11.80;7.37;;;;;;;7.88;73.75;93929.88;5036346;28;20210;-79
2023/03/09 02:50:52;;;;;;;11.03;7.10;;;;;;;8.06;73.02;93951.53;5038402;28;20285;-80
2023/03/09 02:53:23;;;;;;;13.43;7.37;;;;;;;8.08;73.25;93957.31;5034796;28;20227;-79
2023/03/09 02:55:50;;;;;;;12.70;7.70;;;;;;;7.95;73.67;93951.28;5025261;28;20664;-81
2023/03/09 02:58:17;;;;;;;14.77;7.67;;;;;;;8.06;73.57;93951.53;5009311;28;20222;-81
2023/03/09 03:00:44;;;;;;;11.53;7.57;;;;;;;8.10;73.51;93950.91;5030488;28;20211;-81
2023/03/09 03:03:12;;;;;;;14.70;8.30;;;;;;;8.11;73.83;93962.03;5031193;28;20194;-81
2023/03/09 03:05:39;;;;;;;17.53;9.47;;;;;;;8.03;73.60;93942.44;5034136;28;20221;-84
2023/03/09 03:08:06;;;;;;;13.67;8.60;;;;;;;8.05;73.44;93949.97;5037624;28;20205;-84
2023/03/09 03:10:34;;;;;;;17.30;8.27;;;;;;;8.07;73.81;93959.09;5020279;28;20203;-83
2023/03/09 03:13:01;;;;;;;14.30;8.93;;;;;;;7.90;74.91;93952.97;5018288;28;20211;-88
2023/03/09 03:15:28;;;;;;;18.00;9.17;;;;;;;7.89;75.07;93959.13;5019605;28;20203;-87
2023/03/09 03:17:55;;;;;;;15.53;7.70;;;;;;;8.00;74.91;93971.31;5015415;28;20196;-87
2023/03/09 03:20:23;;;;;;;11.80;6.70;;;;;;;8.00;74.28;93973.91;5026362;28;20203;-80
2023/03/09 03:22:50;;;;;;;15.07;6.77;;;;;;;8.02;73.13;93971.91;5022410;28;20549;-80
2023/03/09 03:25:17;;;;;;;10.73;6.17;;;;;;;8.02;73.70;93972.69;5018880;28;20245;-79
2023/03/09 03:27:44;;;;;;;12.57;7.00;;;;;;;8.05;72.82;93970.69;5031760;28;20237;-80
2023/03/09 03:30:13;;;;;;;9.83;6.20;;;;;;;8.01;72.95;93991.03;5032183;28;20575;-79
2023/03/09 03:32:39;;;;;;;10.63;6.40;;;;;;;7.93;73.51;93989.53;5032045;28;20434;-79
2023/03/09 03:35:07;;;;;;;11.27;6.03;;;;;;;7.93;73.20;93983.56;5028490;28;20897;-80
2023/03/09 03:37:35;;;;;;;10.73;5.63;;;;;;;7.89;73.75;93970.28;5029118;28;20249;-80
2023/03/09 03:40:07;;;;;;;11.53;6.27;;;;;;;7.89;74.03;93975.44;5034129;28;20195;-81
2023/03/09 03:42:35;;;;;;;8.50;5.53;;;;;;;7.89;73.95;93974.66;5029853;28;20636;-80
2023/03/09 03:45:02;;;;;;;13.53;6.20;;;;;;;7.81;73.22;93968.00;5029800;28;20226;-79
2023/03/09 03:47:29;;;;;;;11.10;6.27;;;;;;;7.83;74.06;93972.94;5028322;28;20210;-79
2023/03/09 03:49:56;;;;;;;11.47;6.00;;;;;;;7.74;74.50;93981.97;5031242;28;20265;-80
2023/03/09 03:52:23;;;;;;;10.40;6.07;;;;;;;7.72;74.50;93989.97;5013610;28;20211;-82
2023/03/09 03:54:52;;;;;;;12.30;6.50;;;;;;;7.70;74.70;93973.91;5026626;28;20661;-84
2023/03/09 03:57:18;;;;;;;14.90;6.93;;;;;;;7.75;75.07;93975.81;5023511;28;20207;-83
2023/03/09 03:59:45;;;;;;;10.90;6.20;;;;;;;7.78;74.64;93977.97;5015853;28;20214;-82
2023/03/09 04:02:12;;;;;;;11.63;6.13;;;;;;;7.78;75.01;93972.81;5032869;28;20210;-83
2023/03/09 04:04:39;;;;;;;13.43;5.83;;;;;;;7.74;74.46;93966.47;5029400;28;20552;-83
2023/03/09 04:07:06;;;;;;;14.77;6.90;;;;;;;7.72;75.25;93977.03;5026830;28;20206;-85
2023/03/09 04:09:33;;;;;;;10.60;6.43;;;;;;;7.80;74.52;93983.72;5014492;28;20207;-84
2023/03/09 04:12:01;;;;;;;14.43;6.50;;;;;;;7.69;75.18;93958.59;5013174;28;20195;-84
2023/03/09 04:14:28;;;;;;;16.07;7.23;;;;;;;7.75;75.15;93973.22;5032043;28;20574;-85
2023/03/09 04:16:55;;;;;;;13.57;7.93;;;;;;;7.67;75.29;93960.59;5015006;28;20207;-77
2023/03/09 04:19:22;;;;;;;18.33;8.27;;;;;;;7.66;75.99;93964.19;5018901;28;20241;-79
2023/03/09 04:21:48;;;;;;;17.33;8.43;;;;;;;7.52;76.50;93963.56;5027214;28;20225;-78
2023/03/09 04:24:15;;;;;;;19.10;9.10;;;;;;;7.61;76.46;93957.09;5012394;28;20202;-79
2023/03/09 04:26:42;;;;;;;19.33;10.53;;;;;;;7.61;76.26;93962.25;5026475;28;20222;-79
2023/03/09 04:29:13;;;;;;;16.70;9.50;;;;;;;7.64;76.09;93959.25;5021697;28;20207;-78
2023/03/09 04:31:40;;;;;;;28.50;11.43;;;;;;;7.60;76.92;93965.03;5015505;28;20203;-78
2023/03/09 04:34:07;;;;;;;20.60;11.40;;;;;;;7.53;77.20;93956.59;5030375;28;20555;-78
2023/03/09 04:36:34;;;;;;;26.37;11.10;;;;;;;7.45;77.59;93949.91;5030213;28;20210;-79
2023/03/09 04:39:00;;;;;;;21.20;11.23;;;;;;;7.44;78.61;93950.94;5028776;28;20213;-80
2023/03/09 04:41:27;;;;;;;26.13;12.00;;;;;;;7.43;78.89;93942.38;5022293;28;20218;-78
2023/03/09 04:43:54;;;;;;;21.73;12.53;;;;;;;7.39;79.61;93935.25;5012597;28;20214;-79
2023/03/09 04:46:23;;;;;;;25.63;12.87;;;;;;;7.35;79.40;93937.50;5031954;28;20246;-79
2023/03/09 04:48:50;;;;;;;30.67;13.17;;;;;;;7.42;78.64;93940.78;5014901;28;20827;-79
2023/03/09 04:51:17;;;;;;;23.07;12.43;;;;;;;7.41;78.79;93944.41;5026952;28;20572;-79
2023/03/09 04:53:43;;;;;;;35.93;16.97;;;;;;;7.36;79.39;93954.56;5026997;28;20267;-79
2023/03/09 04:56:10;;;;;;;35.10;17.30;;;;;;;7.34;79.70;93953.22;5011460;28;20199;-79
2023/03/09 04:58:37;;;;;;;36.57;15.37;;;;;;;7.32;79.88;93939.72;5012074;28;20318;-80
2023/03/09 05:01:05;;;;;;;33.77;16.37;;;;;;;7.32;80.06;93945.69;5022638;28;20199;-81
2023/03/09 05:03:33;;;;;;;26.43;12.83;;;;;;;7.25;79.48;93921.69;5028843;28;20210;-80
2023/03/09 05:06:00;;;;;;;27.83;12.83;;;;;;;7.26;79.76;93943.16;5028974;28;20388;-80
2023/03/09 05:08:27;;;;;;;40.00;17.33;;;;;;;7.25;80.24;93939.00;5031112;28;20662;-83
2023/03/09 05:10:54;;;;;;;36.63;17.60;;;;;;;7.11;81.22;93945.28;5015719;28;20207;-81
2023/03/09 05:13:21;;;;;;;47.07;17.57;;;;;;;7.14;81.55;93952.63;5014902;28;20684;-75
2023/03/09 05:15:48;;;;;;;39.63;16.97;;;;;;;7.21;81.15;93946.41;5015449;28;20264;-82
2023/03/09 05:18:15;;;;;;;44.53;16.80;;;;;;;7.19;81.76;93937.25;5032126;28;20684;-84
2023/03/09 05:20:43;;;;;;;40.77;17.93;;;;;;;7.21;81.15;93941.22;5028949;28;20206;-82
2023/03/09 05:23:10;;;;;;;38.33;18.57;;;;;;;7.32;80.42;93939.72;5028724;28;20563;-81
2023/03/09 05:25:37;;;;;;;40.83;18.93;;;;;;;7.34;80.28;93935.13;5025704;28;20362;-81
2023/03/09 05:28:05;;;;;;;32.80;16.10;;;;;;;7.33;80.16;93931.75;5012504;28;20219;-82
2023/03/09 05:30:32;;;;;;;33.13;15.27;;;;;;;7.30;80.15;93931.41;5032355;28;20681;-81
2023/03/09 05:33:01;;;;;;;28.43;15.17;;;;;;;7.20;81.72;93934.47;5013801;28;20203;-82
2023/03/09 05:35:28;;;;;;;28.20;11.43;;;;;;;7.33;79.89;93955.00;5019224;28;20203;-81
2023/03/09 05:37:56;;;;;;;15.87;9.80;;;;;;;7.33;80.00;93964.56;5029676;28;20684;-82
2023/03/09 05:40:23;;;;;;;14.57;8.77;;;;;;;7.33;80.16;93977.50;5017117;28;20210;-81
2023/03/09 05:42:50;;;;;;;16.40;8.50;;;;;;;7.37;80.23;93958.75;5033936;28;20198;-89
2023/03/09 05:45:17;;;;;;;19.03;8.20;;;;;;;7.38;79.90;93955.16;5024944;28;20649;-87
2023/03/09 05:47:44;;;;;;;12.33;7.87;;;;;;;7.44;79.75;93966.44;5017030;28;20214;-88
2023/03/09 05:50:11;;;;;;;13.33;8.63;;;;;;;7.52;79.25;93968.72;5025864;28;20231;-85
2023/03/09 05:52:38;;;;;;;15.60;8.30;;;;;;;7.61;78.56;93958.88;5020229;28;20214;-85
2023/03/09 05:55:35;;;;;;;15.73;8.30;;;;;;;7.67;77.36;93971.75;5039506;28;20207;-86
2023/03/09 05:58:02;;;;;;;20.57;9.17;;;;;;;7.77;77.93;93981.56;5028966;28;20203;-90
2023/03/09 06:00:29;;;;;;;18.23;8.63;;;;;;;7.77;77.04;93977.19;5024426;28;20796;-89
2023/03/09 06:02:56;;;;;;;17.07;8.87;;;;;;;7.84;76.96;93985.66;5034040;28;20190;-85
2023/03/09 06:05:30;;;;;;;17.80;9.07;;;;;;;7.79;77.93;93985.50;5023129;28;20223;-86
2023/03/09 06:07:59;;;;;;;15.23;8.53;;;;;;;7.88;77.86;93993.75;5028976;28;20234;-88
2023/03/09 06:10:27;;;;;;;16.80;8.60;;;;;;;7.97;77.32;93989.88;5025624;28;20211;-89
2023/03/09 06:12:54;;;;;;;21.83;9.23;;;;;;;7.88;75.56;93970.47;5017269;28;20226;-88
2023/03/09 06:15:21;;;;;;;22.33;9.63;;;;;;;8.00;75.85;93974.69;5016480;28;20202;-89
2023/03/09 06:17:48;;;;;;;17.97;8.93;;;;;;;8.11;75.77;93982.75;5034002;28;20225;-89
2023/03/09 06:20:15;;;;;;;17.43;8.57;;;;;;;8.21;74.91;93983.78;5036419;28;20230;-88
2023/03/09 06:22:44;;;;;;;17.30;8.90;;;;;;;8.11;74.71;93962.81;5033076;28;20297;-90
2023/03/09 06:25:11;;;;;;;17.63;10.73;;;;;;;8.31;73.85;93985.88;5032657;28;20212;-89
2023/03/09 06:27:39;;;;;;;15.27;9.20;;;;;;;8.24;73.02;93969.63;5036088;28;20194;-88
2023/03/09 06:30:07;;;;;;;15.33;8.23;;;;;;;8.46;72.46;93991.44;5019932;28;20203;-89
2023/03/09 06:32:35;;;;;;;14.77;8.27;;;;;;;8.46;72.66;93979.28;5017698;28;20197;-91
2023/03/09 06:35:02;;;;;;;16.77;8.70;;;;;;;8.53;71.83;93984.38;5018009;28;20283;-89
2023/03/09 06:37:29;;;;;;;14.70;7.77;;;;;;;8.27;72.64;93946.72;5016500;28;20662;-89
2023/03/09 06:39:56;;;;;;;15.27;7.97;;;;;;;8.61;72.61;93991.03;5019274;28;20211;-92
2023/03/09 06:42:23;;;;;;;19.77;8.73;;;;;;;8.49;71.39;93957.34;5017413;28;20195;-92
2023/03/09 06:44:52;;;;;;;14.87;8.20;;;;;;;8.49;71.10;93944.38;5024095;28;20647;-91
2023/03/09 06:47:19;;;;;;;16.17;9.17;;;;;;;8.53;70.79;93932.59;5033374;28;20219;-91
2023/03/09 06:49:45;;;;;;;17.20;9.23;;;;;;;8.72;70.16;93941.81;5031063;28;20200;-90
2023/03/09 06:52:13;;;;;;;28.27;9.57;;;;;;;8.89;69.76;93955.69;5021928;28;20211;-92
2023/03/09 06:54:39;;;;;;;19.03;8.67;;;;;;;8.96;70.46;93963.38;5021693;28;20214;-91
2023/03/09 06:57:07;;;;;;;20.97;9.77;;;;;;;9.01;69.11;93956.50;5025120;28;20290;-91
2023/03/09 06:59:34;;;;;;;18.57;9.93;;;;;;;8.72;69.74;93892.63;5041460;28;20281;-94
2023/03/09 07:02:02;;;;;;;21.63;10.03;;;;;;;9.17;68.73;93962.03;5023422;28;20200;-89
2023/03/09 07:04:29;;;;;;;19.60;10.30;;;;;;;9.26;68.74;93974.44;5017523;28;20214;-90
2023/03/09 07:06:56;;;;;;;19.33;10.30;;;;;;;9.26;69.44;93953.69;5028967;28;20226;-89
2023/03/09 07:09:23;;;;;;;21.73;10.23;;;;;;;9.43;67.91;93964.16;5053360;28;20234;-91
2023/03/09 07:11:50;;;;;;;24.83;10.53;;;;;;;9.51;66.84;93961.19;5020366;28;20214;-92
2023/03/09 07:14:17;;;;;;;21.27;10.57;;;;;;;9.62;67.43;93966.38;5030102;28;20234;-92
2023/03/09 07:16:44;;;;;;;19.60;10.73;;;;;;;9.46;67.13;93935.16;5037545;28;20222;-92
2023/03/09 07:19:12;;;;;;;28.40;10.97;;;;;;;9.62;66.25;93943.03;5036332;28;20203;-92
2023/03/09 07:21:39;;;;;;;23.37;11.73;;;;;;;9.69;66.44;93964.44;5033619;28;20202;-91
2023/03/09 07:24:07;;;;;;;20.67;11.20;;;;;;;9.34;65.88;93913.66;5020045;28;20286;-92
2023/03/09 07:26:33;;;;;;;23.17;11.70;;;;;;;9.82;66.43;93971.16;5023703;28;20712;-79
2023/03/09 07:29:01;;;;;;;26.43;10.97;;;;;;;9.85;66.11;93980.31;5029810;28;20199;-80
2023/03/09 07:31:29;;;;;;;19.43;10.77;;;;;;;9.87;66.64;93962.72;5032620;28;20195;-80
2023/03/09 07:33:55;;;;;;;20.17;10.20;;;;;;;10.01;65.41;93982.19;5031487;28;20694;-80
2023/03/09 07:36:24;;;;;;;25.63;10.17;;;;;;;10.10;66.55;93978.22;5029239;28;20195;-79
2023/03/09 07:38:51;;;;;;;25.63;9.60;;;;;;;10.14;66.14;93979.34;5025505;28;20223;-80
2023/03/09 07:41:18;;;;;;;19.37;9.27;;;;;;;10.23;64.97;93988.34;5023936;28;20226;-79
2023/03/09 07:43:45;;;;;;;24.13;10.07;;;;;;;10.28;66.08;93980.63;5032820;28;20187;-80
2023/03/09 07:46:19;;;;;;;15.10;9.77;;;;;;;10.42;64.36;93983.75;5030024;28;20226;-80
2023/03/09 07:48:46;;;;;;;23.07;10.17;;;;;;;10.54;64.37;93980.06;5028519;28;20953;-79
2023/03/09 07:51:13;;;;;;;16.90;10.53;;;;;;;10.56;63.75;93979.84;5028792;28;20239;-79
2023/03/09 07:53:45;;;;;;;25.30;10.47;;;;;;;10.49;64.37;93979.97;5031011;28;20195;-79
2023/03/09 07:56:12;;;;;;;19.17;10.37;;;;;;;10.47;64.46;93963.84;5017165;28;20674;-80
2023/03/09 07:59:04;;;;;;;27.30;11.50;;;;;;;10.54;64.32;93977.47;5033079;28;20229;-80
2023/03/09 08:09:01;;;;;;;30.80;12.37;;;;;;;10.19;62.22;93917.09;4916438;29;20635;-86
2023/03/09 08:14:55;;;;;;;28.40;12.67;;;;;;;10.38;62.77;93956.66;4857115;29;20770;-83
2023/03/09 08:17:22;;;;;;;18.67;12.20;;;;;;;10.72;62.87;93982.47;4887537;29;20243;-83
2023/03/09 08:19:49;;;;;;;24.23;11.37;;;;;;;10.88;62.04;93977.50;4971209;28;20628;-85
2023/03/09 08:22:22;;;;;;;24.40;11.10;;;;;;;11.01;61.62;93970.19;5025239;28;20206;-90
2023/03/09 08:24:50;;;;;;;28.23;12.30;;;;;;;11.13;62.55;93973.47;5032144;28;20276;-84
2023/03/09 08:27:17;;;;;;;26.93;12.43;;;;;;;11.23;61.11;93962.41;5016357;28;20311;-85
2023/03/09 08:29:44;;;;;;;26.60;12.87;;;;;;;11.26;60.86;93965.34;5025857;28;20211;-82
2023/03/09 08:32:16;;;;;;;34.67;12.97;;;;;;;11.36;60.89;93943.91;5029178;28;20215;-86
2023/03/09 08:34:43;;;;;;;28.67;12.57;;;;;;;11.54;60.73;93971.44;5012892;28;20547;-87
2023/03/09 08:37:10;;;;;;;27.70;13.40;;;;;;;11.69;60.49;93958.63;5013802;28;20577;-85
2023/03/09 08:39:47;;;;;;;24.17;12.70;;;;;;;11.47;60.35;93903.97;5024764;28;20277;-88
2023/03/09 08:42:18;;;;;;;28.83;12.83;;;;;;;11.83;59.72;93947.63;5023701;28;20213;-80
2023/03/09 08:44:48;;;;;;;21.10;12.30;;;;;;;11.64;59.99;93890.91;5015281;28;20215;-85
2023/03/09 08:47:22;;;;;;;22.43;11.90;;;;;;;11.90;59.07;93892.78;5032303;28;20590;-86
2023/03/09 08:49:49;;;;;;;37.27;12.43;;;;;;;12.62;57.96;93962.78;5031615;28;20199;-85
2023/03/09 08:52:21;;;;;;;19.47;11.10;;;;;;;12.57;56.73;93910.63;5018919;28;20622;-84
2023/03/09 08:54:49;;;;;;;20.70;10.50;;;;;;;12.89;56.08;93945.28;5018756;28;20187;-87
2023/03/09 08:57:17;;;;;;;23.47;10.83;;;;;;;13.07;55.57;93958.75;5028840;28;20229;-86
2023/03/09 08:59:45;;;;;;;20.50;10.90;;;;;;;13.26;54.73;93963.59;5029274;28;20301;-89
2023/03/09 09:02:14;;;;;;;18.40;10.00;;;;;;;13.39;53.40;93942.28;5021991;28;20200;-84
2023/03/09 09:04:41;;;;;;;19.67;10.63;;;;;;;13.32;53.16;93934.66;5031933;28;20198;-84
2023/03/09 09:07:08;;;;;;;21.03;10.00;;;;;;;13.33;53.89;93933.59;5035176;28;20712;-84
2023/03/09 09:09:35;;;;;;;17.47;10.13;;;;;;;13.45;53.20;93942.03;5031308;28;20215;-85
2023/03/09 09:12:02;;;;;;;18.57;9.23;;;;;;;13.26;53.23;93906.97;5031612;28;20211;-85
2023/03/09 09:14:33;;;;;;;28.30;9.73;;;;;;;13.06;52.88;93871.09;5031929;28;20193;-83
2023/03/09 09:17:01;;;;;;;25.27;9.40;;;;;;;13.20;53.89;93928.06;5031862;28;20194;-83
2023/03/09 09:19:28;;;;;;;22.07;9.80;;;;;;;13.30;53.85;93920.31;5031724;28;20253;-84
2023/03/09 09:21:56;;;;;;;26.00;9.83;;;;;;;13.39;53.13;93910.97;5032292;28;20207;-83
2023/03/09 09:24:23;;;;;;;19.07;9.53;;;;;;;13.53;53.30;93915.44;5032796;28;20194;-86
2023/03/09 09:26:50;;;;;;;21.67;9.83;;;;;;;13.76;53.11;93906.44;5032298;28;20229;-87
2023/03/09 09:29:17;;;;;;;15.60;8.60;;;;;;;13.96;52.66;93906.50;5031910;28;20202;-85
2023/03/09 09:31:45;;;;;;;22.47;8.70;;;;;;;14.03;51.09;93901.81;5031710;28;20692;-84
2023/03/09 09:34:12;;;;;;;15.50;7.87;;;;;;;14.05;51.42;93870.22;5031759;28;20203;-87
2023/03/09 09:36:40;;;;;;;17.83;8.70;;;;;;;14.26;50.93;93887.47;5035077;28;20274;-87
2023/03/09 09:39:07;;;;;;;18.13;7.97;;;;;;;14.29;50.83;93867.88;5036049;28;20237;-88
2023/03/09 09:41:41;;;;;;;15.57;7.07;;;;;;;14.57;49.63;93868.19;5033729;28;20270;-88
2023/03/09 09:44:14;;;;;;;13.90;7.37;;;;;;;15.01;48.51;93875.47;5034946;28;20202;-90
2023/03/09 09:46:42;;;;;;;15.80;6.90;;;;;;;15.74;48.56;93906.25;5035096;28;20547;-92
2023/03/09 09:49:19;;;;;;;18.93;6.60;;;;;;;16.17;45.99;93901.31;5033551;28;20218;-92
2023/03/09 09:52:13;;;;;;;15.40;5.90;;;;;;;16.52;45.47;93903.75;5032128;28;20658;-84
2023/03/09 09:54:47;;;;;;;11.93;6.20;;;;;;;16.89;44.82;93877.75;5032976;28;20186;-89
2023/03/09 09:57:18;;;;;;;11.10;6.03;;;;;;;17.45;44.76;93898.25;5042386;28;20189;-87
2023/03/09 09:59:56;;;;;;;17.80;6.20;;;;;;;17.71;42.65;93878.56;5051372;28;20183;-92
2023/03/09 10:02:48;;;;;;;13.30;4.97;;;;;;;17.99;41.78;93884.78;5031199;28;20203;-82
2023/03/09 10:05:23;;;;;;;13.10;5.40;;;;;;;18.29;41.68;93887.03;5031578;28;20210;-82
2023/03/09 10:07:52;;;;;;;11.05;5.47;;;;;;;18.77;41.46;93882.38;5018836;28;20226;-82
2023/03/09 10:10:22;;;;;;;9.88;5.50;;;;;;;19.13;40.99;93874.69;5018902;28;20731;-83
2023/03/09 10:12:49;;;;;;;19.70;5.50;;;;;;;19.47;39.70;93864.63;5022498;28;20207;-83
2023/03/09 10:15:24;;;;;;;11.10;4.10;;;;;;;19.27;38.80;93876.28;5017855;28;20199;-82
2023/03/09 10:17:57;;;;;;;5.35;3.13;;;;;;;19.11;38.87;93867.06;5017953;28;20194;-90
2023/03/09 10:20:30;;;;;;;2.63;1.95;;;;;;;18.81;39.55;93849.16;5020489;28;20202;-83
2023/03/09 10:22:57;;;;;;;3.70;1.80;;;;;;;18.90;40.01;93857.97;5031451;28;20189;-90
2023/03/09 10:25:26;;;;;;;4.65;1.90;;;;;;;18.96;39.58;93853.41;5034723;28;20211;-91
2023/03/09 10:28:01;;;;;;;6.63;1.90;;;;;;;18.71;40.13;93833.50;5035513;28;20595;-88
2023/03/09 10:30:38;;;;;;;5.72;2.17;;;;;;;18.89;40.33;93843.22;5036009;28;20190;-88
2023/03/09 10:33:13;;;;;;;6.43;1.85;;;;;;;18.95;39.81;93849.19;5042349;28;20194;-89
2023/03/09 10:35:46;;;;;;;4.68;2.00;;;;;;;19.30;39.36;93827.50;5035448;28;20261;-89
2023/03/09 10:38:14;;;;;;;5.07;2.17;;;;;;;19.86;38.68;93831.69;5035506;28;20202;-90
2023/03/09 10:40:47;;;;;;;2.53;1.98;;;;;;;20.26;37.59;93830.84;5035734;28;20231;-89
2023/03/09 10:43:21;;;;;;;5.72;3.10;;;;;;;20.48;37.53;93838.81;5035664;28;20187;-88
2023/03/09 10:45:50;;;;;;;9.13;2.40;;;;;;;20.25;36.94;93800.28;5035310;28;20196;-88
2023/03/09 10:48:22;;;;;;;7.82;2.30;;;;;;;20.40;37.29;93812.34;5035064;28;20226;-89
2023/03/09 10:50:59;;;;;;;2.40;1.70;;;;;;;20.45;37.16;93812.22;5034666;28;20607;-86
2023/03/09 10:53:37;;;;;;;3.75;1.70;;;;;;;20.44;36.42;93790.31;5036559;28;20198;-88
2023/03/09 10:56:07;;;;;;;6.40;2.10;;;;;;;20.27;36.79;93784.91;5034940;28;20736;-90
2023/03/09 10:58:35;;;;;;;2.80;2.00;;;;;;;20.21;37.61;93783.44;5035262;28;20246;-91
2023/03/09 11:01:04;;;;;;;4.38;1.65;;;;;;;20.15;36.89;93753.75;5035300;28;20262;-88
2023/03/09 11:03:35;;;;;;;3.80;1.63;;;;;;;20.44;36.55;93789.53;5033068;28;20207;-89
2023/03/09 11:06:28;;;;;;;2.88;1.52;;;;;;;20.74;36.53;93784.31;5023258;28;20198;-89
2023/03/09 11:08:58;;;;;;;3.03;1.80;;;;;;;20.82;35.58;93761.66;5010926;28;20242;-88
2023/03/09 11:11:30;;;;;;;4.45;1.73;;;;;;;21.07;35.50;93784.78;5034736;28;20238;-87
2023/03/09 11:13:57;;;;;;;4.03;1.65;;;;;;;21.13;35.33;93761.66;5034915;28;20207;-88
2023/03/09 11:16:26;;;;;;;2.35;1.65;;;;;;;21.50;35.43;93777.81;5039146;28;20202;-88
2023/03/09 11:19:17;;;;;;;2.10;1.60;;;;;;;21.62;35.14;93764.00;5034786;28;20199;-88
2023/03/09 11:21:52;;;;;;;8.38;1.95;;;;;;;21.45;34.53;93738.31;5014681;28;20199;-88
2023/03/09 11:24:19;;;;;;;5.03;2.20;;;;;;;21.62;34.60;93769.28;5014546;28;20645;-88
2023/03/09 11:26:55;;;;;;;5.47;2.00;;;;;;;21.52;34.49;93761.66;5030181;28;20202;-86
2023/03/09 11:29:29;;;;;;;6.55;2.17;;;;;;;21.47;34.32;93736.13;5034352;28;20190;-87
2023/03/09 11:31:56;;;;;;;4.30;1.73;;;;;;;21.71;34.28;93756.88;5035709;28;20735;-87
2023/03/09 11:34:27;;;;;;;8.10;1.83;;;;;;;21.70;34.33;93751.91;5039895;28;20218;-86
2023/03/09 11:37:02;;;;;;;3.58;1.90;;;;;;;21.77;34.28;93729.19;5034041;28;20609;-87
2023/03/09 11:39:34;;;;;;;8.75;1.92;;;;;;;22.08;33.73;93752.13;5040389;28;20202;-88
2023/03/09 11:42:09;;;;;;;7.88;1.88;;;;;;;22.20;33.45;93747.75;5042470;28;20183;-87
2023/03/09 11:44:39;;;;;;;1.92;1.52;;;;;;;21.97;33.70;93738.41;5033733;28;20198;-86
2023/03/09 11:47:19;;;;;;;4.25;1.83;;;;;;;21.94;33.69;93729.22;5033503;28;20689;-86
2023/03/09 11:49:48;;;;;;;2.83;2.00;;;;;;;21.86;33.65;93695.56;5033101;28;20209;-86